Time;durP1;ratioP1;P1;durP2;ratioP2;P2;SDS_P1;SDS_P2;PMS_P1;PMS_P2;Temp;Humidity;BMP_temperature;BMP_pressure;BME280_temperature;BME280_humidity;BME280_pressure;Samples;Min_cycle;Max_cycle;Signal;HPM_P1;HPM_P2
2023/02/03 00:00:08;;;;;;;;;1.00;1.00;;;;;-147.17;100.00;-15917.19;5017669;28;51548;-68
2023/02/03 00:02:33;;;;;;;;;0.67;0.67;;;;;-147.17;100.00;-15917.19;5013773;28;50976;-68
2023/02/03 00:04:58;;;;;;;;;3.00;2.50;;;;;-147.17;100.00;-15917.19;5014616;28;51158;-67
2023/02/03 00:07:24;;;;;;;;;1.00;1.00;;;;;-147.17;100.00;-15917.19;5030842;28;51271;-67
2023/02/03 00:09:49;;;;;;;;;1.50;1.50;;;;;-147.17;100.00;-15917.19;5014356;28;51543;-68
2023/02/03 00:12:15;;;;;;;;;3.00;3.00;;;;;-147.17;100.00;-15917.19;5031276;28;51066;-67
2023/02/03 00:14:40;;;;;;;;;3.75;2.75;;;;;-147.17;100.00;-15917.19;5016985;28;51284;-67
2023/02/03 00:17:05;;;;;;;;;2.00;1.67;;;;;-147.17;100.00;-15917.19;5023468;28;52652;-67
2023/02/03 00:19:31;;;;;;;;;4.00;3.00;;;;;-147.17;100.00;-15917.19;5025904;28;51877;-67
2023/02/03 00:21:56;;;;;;;;;3.00;3.00;;;;;-147.17;100.00;-15917.19;5025121;28;51248;-67
2023/02/03 00:24:22;;;;;;;;;3.25;3.25;;;;;-147.17;100.00;-15917.19;5030577;28;51208;-67
2023/02/03 00:26:48;;;;;;;;;2.00;2.00;;;;;-147.17;100.00;-15917.19;5013986;28;51071;-68
2023/02/03 00:29:13;;;;;;;;;3.00;3.00;;;;;-147.17;100.00;-15917.19;5023437;28;52883;-68
2023/02/03 00:31:39;;;;;;;;;3.50;3.50;;;;;-147.17;100.00;-15917.19;5021479;28;51010;-67
2023/02/03 00:34:05;;;;;;;;;2.50;1.75;;;;;-147.17;100.00;-15917.19;5028823;28;51503;-67
2023/02/03 00:36:31;;;;;;;;;2.00;2.00;;;;;-147.17;100.00;-15917.19;5020808;28;51161;-68
2023/02/03 00:38:56;;;;;;;;;2.00;2.00;;;;;-147.17;100.00;-15917.19;5021004;28;52180;-68
2023/02/03 00:41:22;;;;;;;;;2.00;2.00;;;;;-147.17;100.00;-15917.19;5026269;28;51255;-67
2023/02/03 00:43:48;;;;;;;;;2.00;1.33;;;;;-147.17;100.00;-15917.19;5033493;28;50850;-67
2023/02/03 00:46:14;;;;;;;;;1.00;1.00;;;;;-147.17;100.00;-15917.19;5033447;28;51151;-68
2023/02/03 00:48:39;;;;;;;;;3.00;2.00;;;;;-147.17;100.00;-15917.19;5034271;28;52267;-68
2023/02/03 00:51:05;;;;;;;;;2.00;2.00;;;;;-147.17;100.00;-15917.19;5033914;28;51086;-68
2023/02/03 00:53:30;;;;;;;;;3.75;2.50;;;;;-147.17;100.00;-15917.19;5030695;28;51136;-68
2023/02/03 00:55:56;;;;;;;;;3.00;2.00;;;;;-147.17;100.00;-15917.19;5019164;28;51082;-67
2023/02/03 00:58:21;;;;;;;;;3.75;3.75;;;;;-147.17;100.00;-15917.19;5012111;28;52391;-68
2023/02/03 01:00:46;;;;;;;;;3.25;3.00;;;;;-147.17;100.00;-15917.19;5023473;28;51205;-66
2023/02/03 01:03:12;;;;;;;;;3.00;3.00;;;;;-147.17;100.00;-15917.19;5028805;28;51220;-66
2023/02/03 01:05:37;;;;;;;;;3.50;3.50;;;;;-147.17;100.00;-15917.19;5025858;28;51126;-67
2023/02/03 01:08:03;;;;;;;;;3.75;2.75;;;;;-147.17;100.00;-15917.19;5027402;28;53736;-68
2023/02/03 01:10:29;;;;;;;;;4.00;3.00;;;;;-147.17;100.00;-15917.19;5030527;28;51175;-68
2023/02/03 01:12:54;;;;;;;;;2.00;2.00;;;;;-147.17;100.00;-15917.19;5017197;28;51273;-67
2023/02/03 01:15:19;;;;;;;;;4.00;3.00;;;;;-147.17;100.00;-15917.19;5028160;28;51308;-67
2023/02/03 01:17:45;;;;;;;;;2.75;2.25;;;;;-147.17;100.00;-15917.19;5031807;28;52314;-67
2023/02/03 01:20:15;;;;;;;;;2.00;2.00;;;;;-147.17;100.00;-15917.19;5018712;28;51163;-67
2023/02/03 01:22:41;;;;;;;;;2.75;1.00;;;;;-147.17;100.00;-15917.19;5022802;28;51261;-67
2023/02/03 01:25:07;;;;;;;;;8.00;6.00;;;;;-147.17;100.00;-15917.19;5013437;28;51456;-68
2023/02/03 01:27:32;;;;;;;;;3.00;3.00;;;;;-147.17;100.00;-15917.19;5022776;28;50995;-66
2023/02/03 01:29:58;;;;;;;;;2.00;2.00;;;;;-147.17;100.00;-15917.19;5021664;28;58928;-66
2023/02/03 01:32:23;;;;;;;;;1.25;1.25;;;;;-147.17;100.00;-15917.19;5032021;28;51027;-67
2023/02/03 01:34:49;;;;;;;;;0.00;0.00;;;;;-147.17;100.00;-15917.19;5033418;28;51372;-66
2023/02/03 01:37:16;;;;;;;;;1.67;1.67;;;;;-147.17;100.00;-15917.19;5024926;28;51885;-67
2023/02/03 01:39:41;;;;;;;;;1.00;1.00;;;;;-147.17;100.00;-15917.19;5012731;28;51096;-67
2023/02/03 01:42:11;;;;;;;;;4.00;3.50;;;;;-147.17;100.00;-15917.19;5011717;28;50980;-66
2023/02/03 01:44:39;;;;;;;;;2.00;2.00;;;;;-147.17;100.00;-15917.19;5021797;28;51265;-66
2023/02/03 01:47:20;;;;;;;;;2.00;2.00;;;;;-147.17;100.00;-15917.19;5016697;28;51010;-67
2023/02/03 01:50:01;;;;;;;;;2.00;2.00;;;;;-147.17;100.00;-15917.19;5013006;28;51182;-66
2023/02/03 01:52:27;;;;;;;;;0.67;0.67;;;;;-147.17;100.00;-15917.19;5012593;28;51150;-68
2023/02/03 01:54:56;;;;;;;;;1.00;1.00;;;;;-147.17;100.00;-15917.19;5013045;28;51087;-66
2023/02/03 01:57:26;;;;;;;;;1.00;1.00;;;;;-147.17;100.00;-15917.19;5018389;28;52697;-67
2023/02/03 01:59:54;;;;;;;;;2.00;2.00;;;;;-147.17;100.00;-15917.19;5031681;28;50931;-66
2023/02/03 02:02:20;;;;;;;;;1.00;1.00;;;;;-147.17;100.00;-15917.19;5012814;28;51125;-66
2023/02/03 02:04:55;;;;;;;;;1.33;1.33;;;;;-147.17;100.00;-15917.19;5011718;28;51027;-67
2023/02/03 02:07:22;;;;;;;;;2.00;2.00;;;;;-147.17;100.00;-15917.19;5025144;28;51741;-67
2023/02/03 02:09:47;;;;;;;;;1.75;1.75;;;;;-147.17;100.00;-15917.19;5029431;28;50927;-67
2023/02/03 02:12:13;;;;;;;;;4.00;4.00;;;;;-147.17;100.00;-15917.19;5022139;28;51081;-67
2023/02/03 02:14:40;;;;;;;;;1.00;1.00;;;;;-147.17;100.00;-15917.19;5025004;28;51023;-67
2023/02/03 02:17:22;;;;;;;;;1.00;1.00;;;;;-147.17;100.00;-15917.19;5013384;28;52068;-67
2023/02/03 02:20:12;;;;;;;;;0.00;0.00;;;;;-147.17;100.00;-15917.19;5012906;28;51146;-67
2023/02/03 02:23:22;;;;;;;;;1.00;1.00;;;;;-147.17;100.00;-15917.19;5014803;28;51132;-66
2023/02/03 02:26:09;;;;;;;;;2.00;1.33;;;;;-147.17;100.00;-15917.19;5018992;28;51354;-68
2023/02/03 02:28:40;;;;;;;;;1.00;1.00;;;;;-147.17;100.00;-15917.19;5022967;28;52237;-67
2023/02/03 02:31:36;;;;;;;;;0.00;0.00;;;;;-147.17;100.00;-15917.19;5012314;28;51157;-67
2023/02/03 02:34:14;;;;;;;;;0.00;0.00;;;;;-147.17;100.00;-15917.19;5012366;28;51039;-67
2023/02/03 02:36:54;;;;;;;;;2.00;1.00;;;;;-147.17;100.00;-15917.19;5012488;28;50949;-67
2023/02/03 02:39:36;;;;;;;;;1.33;1.33;;;;;-147.17;100.00;-15917.19;5012060;28;51872;-67
2023/02/03 02:42:17;;;;;;;;;2.00;2.00;;;;;-147.17;100.00;-15917.19;5011805;28;51036;-67
2023/02/03 02:44:50;;;;;;;;;1.00;1.00;;;;;-147.17;100.00;-15917.19;5012236;28;51146;-68
2023/02/03 02:47:21;;;;;;;;;1.00;1.00;;;;;-147.17;100.00;-15917.19;5012143;28;51078;-67
2023/02/03 02:50:05;;;;;;;;;0.00;0.00;;;;;-147.17;100.00;-15917.19;5011977;28;51184;-67
2023/02/03 02:52:35;;;;;;;;;1.00;1.00;;;;;-147.17;100.00;-15917.19;4995043;28;50906;-67
2023/02/03 02:55:07;;;;;;;;;2.00;1.00;;;;;-147.17;100.00;-15917.19;5012038;28;51044;-67
2023/02/03 02:57:36;;;;;;;;;2.00;2.00;;;;;-147.17;100.00;-15917.19;5012364;28;51084;-67
2023/02/03 03:00:03;;;;;;;;;1.00;1.00;;;;;-147.17;100.00;-15917.19;5019441;28;51023;-67
2023/02/03 03:02:34;;;;;;;;;1.00;1.00;;;;;-147.17;100.00;-15917.19;5015333;28;50891;-68
2023/02/03 03:05:01;;;;;;;;;1.00;1.00;;;;;-147.17;100.00;-15917.19;5015237;28;51242;-68
2023/02/03 03:07:29;;;;;;;;;1.67;1.67;;;;;-147.17;100.00;-15917.19;5025908;28;51154;-68
2023/02/03 03:09:59;;;;;;;;;0.00;0.00;;;;;-147.17;100.00;-15917.19;5034904;28;52597;-68
2023/02/03 03:12:32;;;;;;;;;0.00;0.00;;;;;-147.17;100.00;-15917.19;5023585;28;51110;-67
2023/02/03 03:15:02;;;;;;;;;1.00;1.00;;;;;-147.17;100.00;-15917.19;5014991;28;50941;-67
2023/02/03 03:17:32;;;;;;;;;1.00;1.00;;;;;-147.17;100.00;-15917.19;5015451;28;51299;-67
2023/02/03 03:20:03;;;;;;;;;1.00;1.00;;;;;-147.17;100.00;-15917.19;5018050;28;52001;-67
2023/02/03 03:22:39;;;;;;;;;0.00;0.00;;;;;-147.17;100.00;-15917.19;5034532;28;51246;-67
2023/02/03 03:25:11;;;;;;;;;0.00;0.00;;;;;-147.17;100.00;-15917.19;5035433;28;51054;-66
2023/02/03 03:27:43;;;;;;;;;0.00;0.00;;;;;-147.17;100.00;-15917.19;5017411;28;51138;-66
2023/02/03 03:30:26;;;;;;;;;0.33;0.33;;;;;-147.17;100.00;-15917.19;5015010;28;51063;-67
2023/02/03 03:32:52;;;;;;;;;1.00;0.00;;;;;-147.17;100.00;-15917.19;5014985;28;51011;-67
2023/02/03 03:35:18;;;;;;;;;1.00;1.00;;;;;-147.17;100.00;-15917.19;5014683;28;50908;-66
2023/02/03 03:37:53;;;;;;;;;1.00;1.00;;;;;-147.17;100.00;-15917.19;5014945;28;50958;-67
2023/02/03 03:40:42;;;;;;;;;2.00;2.00;;;;;-147.17;100.00;-15917.19;5015277;28;53300;-66
2023/02/03 03:43:25;;;;;;;;;1.00;1.00;;;;;-147.17;100.00;-15917.19;5015688;28;51187;-67
2023/02/03 03:45:59;;;;;;;;;0.33;0.00;;;;;-147.17;100.00;-15917.19;5015690;28;51095;-66
2023/02/03 03:48:33;;;;;;;;;1.00;1.00;;;;;-147.17;100.00;-15917.19;5015445;28;51177;-67
2023/02/03 03:51:03;;;;;;;;;1.00;0.00;;;;;-147.17;100.00;-15917.19;5014805;28;51186;-67
2023/02/03 03:53:33;;;;;;;;;2.00;1.00;;;;;-147.17;100.00;-15917.19;5014985;28;51160;-69
2023/02/03 03:56:02;;;;;;;;;1.00;1.00;;;;;-147.17;100.00;-15917.19;5014581;28;51164;-67
2023/02/03 03:58:31;;;;;;;;;1.00;0.00;;;;;-147.17;100.00;-15917.19;5014697;28;51352;-67
2023/02/03 04:01:01;;;;;;;;;0.00;0.00;;;;;-147.17;100.00;-15917.19;5029262;28;52052;-68
2023/02/03 04:03:37;;;;;;;;;1.00;1.00;;;;;-147.17;100.00;-15917.19;5031716;28;50986;-68
2023/02/03 04:06:02;;;;;;;;;0.00;0.00;;;;;-147.17;100.00;-15917.19;5021163;28;51253;-67
2023/02/03 04:08:28;;;;;;;;;0.00;0.00;;;;;-147.17;100.00;-15917.19;5032521;28;51083;-67
2023/02/03 04:10:53;;;;;;;;;0.33;0.33;;;;;-147.17;100.00;-15917.19;5028704;28;66448;-68
2023/02/03 04:13:19;;;;;;;;;0.00;0.00;;;;;-147.17;100.00;-15917.19;5015413;28;51264;-66
2023/02/03 04:15:45;;;;;;;;;1.00;1.00;;;;;-147.17;100.00;-15917.19;5021508;28;51107;-66
2023/02/03 04:18:13;;;;;;;;;0.00;0.00;;;;;-147.17;100.00;-15917.19;5014342;28;51340;-66
2023/02/03 04:20:38;;;;;;;;;0.00;0.00;;;;;-147.17;100.00;-15917.19;5013830;28;52048;-66
2023/02/03 04:23:04;;;;;;;;;0.00;0.00;;;;;-147.17;100.00;-15917.19;5013808;28;51152;-67
2023/02/03 04:25:29;;;;;;;;;0.00;0.00;;;;;-147.17;100.00;-15917.19;5014294;28;51382;-67
2023/02/03 04:27:54;;;;;;;;;0.67;0.67;;;;;-147.17;100.00;-15917.19;5013812;28;51316;-66
2023/02/03 04:30:20;;;;;;;;;0.00;0.00;;;;;-147.17;100.00;-15917.19;5014016;28;51077;-67
2023/02/03 04:32:45;;;;;;;;;0.67;0.00;;;;;-147.17;100.00;-15917.19;5014016;28;51209;-66
2023/02/03 04:35:11;;;;;;;;;0.67;0.00;;;;;-147.17;100.00;-15917.19;5013923;28;51220;-66
2023/02/03 04:37:36;;;;;;;;;1.00;1.00;;;;;-147.17;100.00;-15917.19;5014023;28;50936;-66
2023/02/03 04:40:03;;;;;;;;;1.00;0.00;;;;;-147.17;100.00;-15917.19;5013931;28;51226;-66
2023/02/03 04:42:28;;;;;;;;;0.00;0.00;;;;;-147.17;100.00;-15917.19;5026850;28;51094;-66
2023/02/03 04:44:53;;;;;;;;;0.00;0.00;;;;;-147.17;100.00;-15917.19;5013976;28;51041;-65
2023/02/03 04:47:19;;;;;;;;;0.33;0.00;;;;;-147.17;100.00;-15917.19;5031875;28;51120;-66
2023/02/03 04:49:45;;;;;;;;;0.00;0.00;;;;;-147.17;100.00;-15917.19;5033499;28;52055;-67
2023/02/03 04:52:10;;;;;;;;;0.00;0.00;;;;;-147.17;100.00;-15917.19;5033370;28;51345;-67
2023/02/03 04:54:36;;;;;;;;;1.00;1.00;;;;;-147.17;100.00;-15917.19;5033742;28;51172;-66
2023/02/03 04:57:01;;;;;;;;;1.00;1.00;;;;;-147.17;100.00;-15917.19;5033768;28;51205;-66
2023/02/03 04:59:27;;;;;;;;;1.00;0.33;;;;;-147.17;100.00;-15917.19;5031697;28;51835;-66
2023/02/03 05:01:52;;;;;;;;;2.33;2.00;;;;;-147.17;100.00;-15917.19;5013992;28;50976;-65
2023/02/03 05:04:18;;;;;;;;;0.33;0.00;;;;;-147.17;100.00;-15917.19;5013810;28;51170;-66
2023/02/03 05:06:43;;;;;;;;;1.25;1.00;;;;;-147.17;100.00;-15917.19;5018131;28;51147;-66
2023/02/03 05:09:08;;;;;;;;;1.00;1.00;;;;;-147.17;100.00;-15917.19;5033935;28;52244;-66
2023/02/03 05:11:34;;;;;;;;;1.00;0.00;;;;;-147.17;100.00;-15917.19;5029585;28;51000;-66
2023/02/03 05:13:59;;;;;;;;;0.00;0.00;;;;;-147.17;100.00;-15917.19;5022185;28;51137;-65
2023/02/03 05:16:25;;;;;;;;;0.00;0.00;;;;;-147.17;100.00;-15917.19;5032893;28;51089;-67
2023/02/03 05:18:50;;;;;;;;;1.00;1.00;;;;;-147.17;100.00;-15917.19;5031981;28;52133;-66
2023/02/03 05:21:15;;;;;;;;;0.50;0.50;;;;;-147.17;100.00;-15917.19;5026688;28;52527;-66
2023/02/03 05:23:41;;;;;;;;;0.00;0.00;;;;;-147.17;100.00;-15917.19;5028910;28;51219;-66
2023/02/03 05:26:07;;;;;;;;;0.00;0.00;;;;;-147.17;100.00;-15917.19;5033429;28;51109;-66
2023/02/03 05:28:32;;;;;;;;;1.00;1.00;;;;;-147.17;100.00;-15917.19;5033028;28;51052;-66
2023/02/03 05:30:59;;;;;;;;;1.00;1.00;;;;;-147.17;100.00;-15917.19;5032936;28;51124;-67
2023/02/03 05:33:24;;;;;;;;;1.00;0.33;;;;;-147.17;100.00;-15917.19;5031621;28;51294;-67
2023/02/03 05:35:49;;;;;;;;;0.00;0.00;;;;;-147.17;100.00;-15917.19;5032282;28;51003;-66
2023/02/03 05:38:15;;;;;;;;;0.00;0.00;;;;;-147.17;100.00;-15917.19;5031497;28;53088;-68
2023/02/03 05:43:24;;;;;;;;;1.00;1.00;;;;;-147.17;100.00;-15917.19;5025997;28;51299;-66
2023/02/03 05:45:49;;;;;;;;;0.33;0.00;;;;;-147.17;100.00;-15917.19;5013626;28;51369;-66
2023/02/03 05:48:15;;;;;;;;;0.00;0.00;;;;;-147.17;100.00;-15917.19;5023900;28;52970;-66
2023/02/03 05:50:40;;;;;;;;;0.33;0.33;;;;;-147.17;100.00;-15917.19;5019925;28;51349;-66
2023/02/03 05:53:07;;;;;;;;;0.00;0.00;;;;;-147.17;100.00;-15917.19;5012770;28;50927;-66
2023/02/03 05:55:33;;;;;;;;;0.67;0.67;;;;;-147.17;100.00;-15917.19;5013034;28;50980;-66
2023/02/03 05:58:01;;;;;;;;;2.00;2.00;;;;;-147.17;100.00;-15917.19;5017703;28;51276;-68
2023/02/03 06:00:27;;;;;;;;;1.00;1.00;;;;;-147.17;100.00;-15917.19;5017733;28;51224;-67
2023/02/03 06:02:54;;;;;;;;;0.33;0.33;;;;;-147.17;100.00;-15917.19;5014261;28;51189;-66
2023/02/03 06:05:21;;;;;;;;;1.00;1.00;;;;;-147.17;100.00;-15917.19;5023763;28;51465;-67
2023/02/03 06:07:46;;;;;;;;;2.00;1.00;;;;;-147.17;100.00;-15917.19;5019789;28;52622;-66
2023/02/03 06:10:13;;;;;;;;;1.00;1.00;;;;;-147.17;100.00;-15917.19;5015888;28;51094;-66
2023/02/03 06:12:38;;;;;;;;;1.00;1.00;;;;;-147.17;100.00;-15917.19;5010742;28;51147;-67
2023/02/03 06:15:04;;;;;;;;;0.33;0.33;;;;;-147.17;100.00;-15917.19;5018381;28;51305;-67
2023/02/03 06:17:30;;;;;;;;;1.00;0.00;;;;;-147.17;100.00;-15917.19;5010417;28;53277;-67
2023/02/03 06:19:55;;;;;;;;;0.67;0.67;;;;;-147.17;100.00;-15917.19;5010227;28;51571;-67
2023/02/03 06:22:21;;;;;;;;;1.00;1.00;;;;;-147.17;100.00;-15917.19;5010505;28;51541;-66
2023/02/03 06:24:47;;;;;;;;;4.00;3.00;;;;;-147.17;100.00;-15917.19;5010949;28;51024;-67
2023/02/03 06:27:13;;;;;;;;;2.00;2.00;;;;;-147.17;100.00;-15917.19;5010254;28;51194;-67
2023/02/03 06:29:39;;;;;;;;;0.00;0.00;;;;;-147.17;100.00;-15917.19;5009961;28;51141;-67
2023/02/03 06:32:04;;;;;;;;;0.67;0.67;;;;;-147.17;100.00;-15917.19;5009747;28;51150;-67
2023/02/03 06:34:31;;;;;;;;;0.00;0.00;;;;;-147.17;100.00;-15917.19;5010938;28;51046;-67
2023/02/03 06:36:56;;;;;;;;;0.67;0.67;;;;;-147.17;100.00;-15917.19;5014859;28;50995;-68
2023/02/03 06:39:22;;;;;;;;;0.00;0.00;;;;;-147.17;100.00;-15917.19;5014808;28;51138;-67
2023/02/03 06:41:48;;;;;;;;;0.67;0.67;;;;;-147.17;100.00;-15917.19;5015069;28;51051;-66
2023/02/03 06:44:13;;;;;;;;;1.00;1.00;;;;;-147.17;100.00;-15917.19;5016013;28;51304;-67
2023/02/03 06:46:38;;;;;;;;;1.00;1.00;;;;;-147.17;100.00;-15917.19;5022267;28;52257;-67
2023/02/03 06:49:04;;;;;;;;;1.00;0.00;;;;;-147.17;100.00;-15917.19;5018421;28;51091;-67
2023/02/03 06:51:29;;;;;;;;;1.00;1.00;;;;;-147.17;100.00;-15917.19;5023796;28;51610;-67
2023/02/03 06:53:54;;;;;;;;;1.00;1.00;;;;;-147.17;100.00;-15917.19;5016890;28;51330;-67
2023/02/03 06:56:20;;;;;;;;;1.00;1.00;;;;;-147.17;100.00;-15917.19;5013458;28;51735;-68
2023/02/03 06:58:45;;;;;;;;;2.25;2.25;;;;;-147.17;100.00;-15917.19;5014981;28;58881;-67
2023/02/03 07:01:10;;;;;;;;;3.00;3.00;;;;;-147.17;100.00;-15917.19;5025240;28;51306;-67
2023/02/03 07:03:36;;;;;;;;;2.00;2.00;;;;;-147.17;100.00;-15917.19;5018978;28;51120;-66
2023/02/03 07:06:01;;;;;;;;;3.00;2.75;;;;;-147.17;100.00;-15917.19;5029280;28;51425;-66
2023/02/03 07:08:26;;;;;;;;;3.00;3.00;;;;;-147.17;100.00;-15917.19;5020910;28;50972;-68
2023/02/03 07:10:55;;;;;;;;;2.00;2.00;;;;;-147.17;100.00;-15917.19;5024360;28;51179;-67
2023/02/03 07:13:21;;;;;;;;;3.00;2.00;;;;;-147.17;100.00;-15917.19;5017418;28;51418;-67
2023/02/03 07:15:46;;;;;;;;;1.00;1.00;;;;;-147.17;100.00;-15917.19;5024232;28;51119;-68
2023/02/03 07:18:11;;;;;;;;;3.00;2.75;;;;;-147.17;100.00;-15917.19;5030346;28;51086;-69
2023/02/03 07:20:36;;;;;;;;;3.25;2.00;;;;;-147.17;100.00;-15917.19;5014133;28;53672;-68
2023/02/03 07:23:02;;;;;;;;;1.75;1.75;;;;;-147.17;100.00;-15917.19;5027449;28;51545;-67
2023/02/03 07:25:27;;;;;;;;;1.50;1.50;;;;;-147.17;100.00;-15917.19;5022014;28;52287;-69
2023/02/03 07:27:53;;;;;;;;;1.00;1.00;;;;;-147.17;100.00;-15917.19;5014208;28;50928;-68
2023/02/03 07:30:18;;;;;;;;;2.00;2.00;;;;;-147.17;100.00;-15917.19;5022665;28;50910;-68
2023/02/03 07:32:51;;;;;;;;;1.00;1.00;;;;;-147.17;100.00;-15917.19;5019540;28;51306;-68
2023/02/03 07:35:17;;;;;;;;;1.75;1.75;;;;;-147.17;100.00;-15917.19;5033918;28;51956;-68
2023/02/03 07:37:43;;;;;;;;;2.00;2.00;;;;;-147.17;100.00;-15917.19;5034230;28;50974;-68
2023/02/03 07:40:10;;;;;;;;;2.75;2.00;;;;;-147.17;100.00;-15917.19;5023613;28;51070;-66
2023/02/03 07:42:40;;;;;;;;;2.00;2.00;;;;;-147.17;100.00;-15917.19;5017674;28;51366;-67
2023/02/03 07:45:05;;;;;;;;;3.00;3.00;;;;;-147.17;100.00;-15917.19;5033711;28;51405;-69
2023/02/03 07:47:31;;;;;;;;;3.00;3.00;;;;;-147.17;100.00;-15917.19;5015888;28;51082;-68
2023/02/03 07:49:57;;;;;;;;;4.00;4.00;;;;;-147.17;100.00;-15917.19;5034190;28;50944;-68
2023/02/03 07:52:22;;;;;;;;;3.25;3.25;;;;;-147.17;100.00;-15917.19;5034120;28;51347;-69
2023/02/03 07:54:47;;;;;;;;;9.75;9.50;;;;;-147.17;100.00;-15917.19;5034297;28;51126;-68
2023/02/03 07:57:12;;;;;;;;;9.75;7.75;;;;;-147.17;100.00;-15917.19;5033960;28;51016;-68
2023/02/03 07:59:38;;;;;;;;;8.00;8.00;;;;;-147.17;100.00;-15917.19;5034316;28;50924;-69
2023/02/03 08:02:04;;;;;;;;;9.00;5.00;;;;;-147.17;100.00;-15917.19;5018369;28;51428;-68
2023/02/03 08:04:30;;;;;;;;;4.50;4.00;;;;;-147.17;100.00;-15917.19;5014040;28;51982;-69
2023/02/03 08:06:55;;;;;;;;;4.00;4.00;;;;;-147.17;100.00;-15917.19;5014136;28;51074;-69
2023/02/03 08:09:20;;;;;;;;;5.75;4.00;;;;;-147.17;100.00;-15917.19;5016799;28;51122;-69
2023/02/03 08:11:46;;;;;;;;;2.50;2.50;;;;;-147.17;100.00;-15917.19;5025260;28;51314;-68
2023/02/03 08:14:11;;;;;;;;;5.00;5.00;;;;;-147.17;100.00;-15917.19;5024225;28;52119;-67
2023/02/03 08:16:36;;;;;;;;;3.00;3.00;;;;;-147.17;100.00;-15917.19;5034270;28;51022;-68
2023/02/03 08:19:02;;;;;;;;;4.00;4.00;;;;;-147.17;100.00;-15917.19;5024357;28;51081;-69
2023/02/03 08:21:27;;;;;;;;;3.00;3.00;;;;;-147.17;100.00;-15917.19;5033463;28;51105;-68
2023/02/03 08:23:52;;;;;;;;;5.00;3.00;;;;;-147.17;100.00;-15917.19;5033493;28;66927;-69
2023/02/03 08:26:17;;;;;;;;;8.00;6.00;;;;;-147.17;100.00;-15917.19;5033978;28;51009;-69
2023/02/03 08:28:47;;;;;;;;;3.25;3.25;;;;;-147.17;100.00;-15917.19;5034789;28;51117;-67
2023/02/03 08:31:12;;;;;;;;;4.75;4.00;;;;;-147.17;100.00;-15917.19;5034644;28;50892;-69
2023/02/03 08:33:38;;;;;;;;;3.00;2.00;;;;;-147.17;100.00;-15917.19;5033973;28;51087;-69
2023/02/03 08:36:05;;;;;;;;;3.00;3.00;;;;;-147.17;100.00;-15917.19;5033591;28;51096;-68
2023/02/03 08:38:30;;;;;;;;;3.00;3.00;;;;;-147.17;100.00;-15917.19;5034221;28;51052;-68
2023/02/03 08:40:56;;;;;;;;;7.25;3.00;;;;;-147.17;100.00;-15917.19;5032403;28;52206;-69
2023/02/03 08:43:21;;;;;;;;;5.00;4.00;;;;;-147.17;100.00;-15917.19;5022634;28;51958;-68
2023/02/03 08:45:46;;;;;;;;;2.75;2.75;;;;;-147.17;100.00;-15917.19;5013557;28;50964;-67
2023/02/03 08:48:12;;;;;;;;;4.25;4.25;;;;;-147.17;100.00;-15917.19;5013905;28;50873;-68
2023/02/03 08:50:40;;;;;;;;;4.00;4.00;;;;;-147.17;100.00;-15917.19;5013568;28;51344;-67
2023/02/03 08:53:05;;;;;;;;;7.50;7.00;;;;;-147.17;100.00;-15917.19;5013270;28;51102;-68
2023/02/03 08:55:31;;;;;;;;;2.75;2.75;;;;;-147.17;100.00;-15917.19;5012548;28;53805;-67
2023/02/03 08:57:56;;;;;;;;;6.00;5.00;;;;;-147.17;100.00;-15917.19;5012920;28;51266;-68
2023/02/03 09:00:22;;;;;;;;;2.00;2.00;;;;;-147.17;100.00;-15917.19;5025617;28;51158;-68
2023/02/03 09:02:47;;;;;;;;;2.00;2.00;;;;;-147.17;100.00;-15917.19;5013356;28;50930;-69
2023/02/03 09:05:14;;;;;;;;;2.00;2.00;;;;;-147.17;100.00;-15917.19;5024694;28;51340;-68
2023/02/03 09:07:40;;;;;;;;;7.25;6.25;;;;;-147.17;100.00;-15917.19;5023202;28;51133;-68
2023/02/03 09:10:05;;;;;;;;;3.50;3.50;;;;;-147.17;100.00;-15917.19;5033286;28;50932;-69
2023/02/03 09:12:31;;;;;;;;;7.00;4.00;;;;;-147.17;100.00;-15917.19;5026391;28;51096;-68
2023/02/03 09:14:56;;;;;;;;;2.50;2.00;;;;;-147.17;100.00;-15917.19;5018553;28;52862;-67
2023/02/03 09:17:21;;;;;;;;;2.00;2.00;;;;;-147.17;100.00;-15917.19;5033009;28;50979;-68
2023/02/03 09:19:47;;;;;;;;;2.25;1.50;;;;;-147.17;100.00;-15917.19;5014728;28;51193;-67
2023/02/03 09:22:12;;;;;;;;;4.00;3.00;;;;;-147.17;100.00;-15917.19;5016300;28;54525;-68
2023/02/03 09:24:37;;;;;;;;;2.00;2.00;;;;;-147.17;100.00;-15917.19;5026635;28;50980;-68
2023/02/03 09:27:03;;;;;;;;;3.00;3.00;;;;;-147.17;100.00;-15917.19;5011576;28;51192;-68
2023/02/03 09:29:28;;;;;;;;;4.50;3.50;;;;;-147.17;100.00;-15917.19;5015468;28;51110;-68
2023/02/03 09:31:54;;;;;;;;;4.00;4.00;;;;;-147.17;100.00;-15917.19;5017934;28;52001;-70
2023/02/03 09:34:20;;;;;;;;;7.75;7.75;;;;;-147.17;100.00;-15917.19;5013869;28;50992;-68
2023/02/03 09:36:46;;;;;;;;;3.00;3.00;;;;;-147.17;100.00;-15917.19;5027182;28;51182;-69
2023/02/03 09:39:11;;;;;;;;;1.50;1.50;;;;;-147.17;100.00;-15917.19;5017404;28;51382;-67
2023/02/03 09:42:02;;;;;;;;;3.25;3.00;;;;;-147.17;100.00;-15917.19;5032612;28;50949;-66
2023/02/03 09:44:48;;;;;;;;;4.00;3.50;;;;;-147.17;100.00;-15917.19;5028243;28;51137;-68
2023/02/03 09:47:27;;;;;;;;;3.50;3.25;;;;;-147.17;100.00;-15917.19;5030006;28;51164;-68
2023/02/03 09:49:57;;;;;;;;;5.00;4.00;;;;;-147.17;100.00;-15917.19;5024600;28;50920;-67
2023/02/03 09:52:28;;;;;;;;;4.00;4.00;;;;;-147.17;100.00;-15917.19;5027748;28;51999;-67
2023/02/03 09:55:05;;;;;;;;;2.00;2.00;;;;;-147.17;100.00;-15917.19;5032354;28;51114;-67
2023/02/03 09:57:39;;;;;;;;;6.25;5.75;;;;;-147.17;100.00;-15917.19;5031774;28;51108;-70
2023/02/03 10:00:25;;;;;;;;;2.67;2.67;;;;;-147.17;100.00;-15917.19;5027260;28;51132;-68
2023/02/03 10:02:55;;;;;;;;;8.00;5.25;;;;;-147.17;100.00;-15917.19;5011646;28;51106;-66
2023/02/03 10:05:37;;;;;;;;;7.75;7.75;;;;;-147.17;100.00;-15917.19;5011766;28;50966;-68
2023/02/03 10:08:27;;;;;;;;;4.00;3.75;;;;;-147.17;100.00;-15917.19;5012177;28;51084;-68
2023/02/03 10:11:31;;;;;;;;;3.33;3.00;;;;;-147.17;100.00;-15917.19;5029421;28;50972;-68
2023/02/03 10:14:19;;;;;;;;;2.75;2.75;;;;;-147.17;100.00;-15917.19;5013200;28;51099;-67
2023/02/03 10:17:08;;;;;;;;;3.00;3.00;;;;;-147.17;100.00;-15917.19;5012039;28;51206;-67
2023/02/03 10:20:01;;;;;;;;;4.50;4.00;;;;;-147.17;100.00;-15917.19;5011972;28;51341;-68
2023/02/03 10:22:31;;;;;;;;;3.25;3.00;;;;;-147.17;100.00;-15917.19;5012019;28;51402;-68
2023/02/03 10:25:02;;;;;;;;;3.00;3.00;;;;;-147.17;100.00;-15917.19;5018805;28;51915;-69
2023/02/03 10:27:28;;;;;;;;;4.00;4.00;;;;;-147.17;100.00;-15917.19;5031814;28;50959;-67
2023/02/03 10:30:19;;;;;;;;;5.00;5.00;;;;;-147.17;100.00;-15917.19;5025151;28;50959;-68
2023/02/03 10:32:48;;;;;;;;;5.00;4.00;;;;;-147.17;100.00;-15917.19;5010942;28;51293;-68
2023/02/03 10:35:14;;;;;;;;;2.67;2.00;;;;;-147.17;100.00;-15917.19;5020340;28;52022;-68
2023/02/03 10:37:54;;;;;;;;;2.00;2.00;;;;;-147.17;100.00;-15917.19;5014720;28;51264;-67
2023/02/03 10:40:23;;;;;;;;;4.50;3.00;;;;;-147.17;100.00;-15917.19;5017160;28;51219;-68
2023/02/03 10:45:37;;;;;;;;;4.00;3.50;;;;;-147.17;100.00;-15917.19;5016973;28;51658;-67
2023/02/03 10:48:05;;;;;;;;;3.75;3.75;;;;;-147.17;100.00;-15917.19;5030892;28;51040;-67
2023/02/03 10:50:30;;;;;;;;;1.75;1.75;;;;;-147.17;100.00;-15917.19;5015698;28;51180;-68
2023/02/03 10:53:20;;;;;;;;;3.00;3.00;;;;;-147.17;100.00;-15917.19;5031116;28;51268;-68
2023/02/03 10:55:50;;;;;;;;;12.25;10.75;;;;;-147.17;100.00;-15917.19;5029729;28;52025;-66
2023/02/03 10:58:25;;;;;;;;;3.67;3.67;;;;;-147.17;100.00;-15917.19;5031050;28;51129;-67
2023/02/03 11:00:56;;;;;;;;;2.00;2.00;;;;;-147.17;100.00;-15917.19;5023879;28;51203;-67
2023/02/03 11:03:28;;;;;;;;;2.00;2.00;;;;;-147.17;100.00;-15917.19;5013639;28;51230;-66
2023/02/03 11:06:14;;;;;;;;;4.00;4.00;;;;;-147.17;100.00;-15917.19;5015048;28;52059;-66
2023/02/03 11:08:42;;;;;;;;;3.00;3.00;;;;;-147.17;100.00;-15917.19;5020370;28;51080;-64
2023/02/03 11:11:31;;;;;;;;;3.00;3.00;;;;;-147.17;100.00;-15917.19;5020257;28;51113;-64
2023/02/03 11:13:59;;;;;;;;;4.33;4.33;;;;;-147.17;100.00;-15917.19;5025331;28;51042;-63